createdAt,value
2023-08-02T00:00:58.171Z,5.82
2023-08-02T00:03:24.664Z,6.75
2023-08-02T00:05:59.014Z,7.35
2023-08-02T00:08:26.752Z,5.30
2023-08-02T00:10:53.748Z,5.88
2023-08-02T00:13:20.355Z,5.50
2023-08-02T00:15:47.015Z,7.85
2023-08-02T00:18:13.691Z,6.15
2023-08-02T00:20:40.951Z,6.00
2023-08-02T00:23:07.767Z,4.90
2023-08-02T00:25:34.330Z,4.72
2023-08-02T00:28:00.916Z,4.40
2023-08-02T00:30:27.772Z,4.28
2023-08-02T00:32:54.449Z,6.25
2023-08-02T00:35:21.076Z,4.72
2023-08-02T00:37:47.542Z,5.25
2023-08-02T00:40:14.609Z,6.93
2023-08-02T00:42:41.294Z,5.43
2023-08-02T00:45:08.459Z,6.50
2023-08-02T00:47:36.170Z,6.22
2023-08-02T00:50:04.714Z,5.95
2023-08-02T00:52:31.631Z,4.93
2023-08-02T00:54:58.244Z,6.40
2023-08-02T00:57:24.776Z,4.90
2023-08-02T00:59:51.283Z,5.40
2023-08-02T01:02:17.887Z,8.93
2023-08-02T01:04:45.932Z,8.05
2023-08-02T01:07:21.612Z,9.48
2023-08-02T01:09:55.913Z,6.38
2023-08-02T01:12:24.287Z,7.15
2023-08-02T01:14:56.054Z,8.07
2023-08-02T01:17:29.140Z,6.85
2023-08-02T01:20:00.755Z,7.57
2023-08-02T01:22:27.296Z,6.95
2023-08-02T01:24:53.927Z,7.05
2023-08-02T01:27:24.318Z,6.28
2023-08-02T01:29:53.128Z,7.22
2023-08-02T01:32:22.623Z,7.45
2023-08-02T01:34:50.856Z,7.68
2023-08-02T01:37:17.514Z,6.93
2023-08-02T01:39:43.988Z,7.82
2023-08-02T01:42:14.973Z,6.25
2023-08-02T01:44:41.487Z,8.07
2023-08-02T01:47:08.014Z,6.78
2023-08-02T01:49:34.478Z,7.43
2023-08-02T01:52:01.098Z,8.10
2023-08-02T01:54:27.569Z,8.40
2023-08-02T01:56:54.052Z,8.23
2023-08-02T01:59:20.578Z,7.10
2023-08-02T02:01:47.101Z,6.20
2023-08-02T02:04:13.640Z,6.38
2023-08-02T02:06:40.255Z,6.78
2023-08-02T02:09:06.831Z,7.22
2023-08-02T02:11:33.375Z,7.15
2023-08-02T02:14:00.056Z,6.97
2023-08-02T02:16:26.589Z,8.95
2023-08-02T02:18:53.057Z,8.15
2023-08-02T02:21:19.517Z,7.70
2023-08-02T02:23:46.039Z,6.10
2023-08-02T02:26:12.657Z,6.10
2023-08-02T02:28:39.125Z,6.00
2023-08-02T02:31:05.874Z,6.18
2023-08-02T02:33:32.468Z,6.68
2023-08-02T02:35:59.015Z,7.07
2023-08-02T02:38:25.556Z,9.88
2023-08-02T02:40:52.028Z,9.13
2023-08-02T02:43:18.491Z,6.93
2023-08-02T02:45:44.968Z,8.80
2023-08-02T02:48:11.497Z,6.38
2023-08-02T02:50:37.966Z,6.47
2023-08-02T02:53:04.457Z,6.47
2023-08-02T02:55:30.998Z,6.90
2023-08-02T02:57:57.499Z,6.70
2023-08-02T03:00:24.148Z,7.68
2023-08-02T03:02:50.640Z,8.20
2023-08-02T03:05:17.304Z,8.50
2023-08-02T03:07:43.865Z,5.85
2023-08-02T03:10:10.602Z,6.78
2023-08-02T03:12:37.152Z,7.38
2023-08-02T03:15:03.944Z,6.07
2023-08-02T03:19:56.974Z,5.30
2023-08-02T03:22:23.591Z,6.97
2023-08-02T03:24:50.050Z,9.00
2023-08-02T03:27:16.495Z,7.57
2023-08-02T03:29:42.966Z,4.13
2023-08-02T03:32:09.617Z,7.70
2023-08-02T03:34:36.100Z,6.22
2023-08-02T03:37:02.565Z,5.30
2023-08-02T03:39:29.088Z,6.00
2023-08-02T03:41:56.328Z,5.70
2023-08-02T03:44:22.972Z,5.10
2023-08-02T03:46:49.601Z,6.30
2023-08-02T03:49:16.213Z,5.93
2023-08-02T03:51:42.831Z,5.65
2023-08-02T03:54:09.521Z,6.72
2023-08-02T03:56:36.110Z,5.00
2023-08-02T03:59:02.610Z,6.03
2023-08-02T04:01:29.245Z,4.88
2023-08-02T04:03:55.833Z,5.88
2023-08-02T04:06:22.460Z,5.25
2023-08-02T04:08:49.046Z,6.20
2023-08-02T04:11:15.507Z,6.22
2023-08-02T04:13:42.001Z,5.90
2023-08-02T04:16:08.532Z,5.70
2023-08-02T04:18:35.112Z,6.45
2023-08-02T04:21:01.759Z,4.88
2023-08-02T04:23:28.534Z,7.93
2023-08-02T04:28:23.452Z,6.78
2023-08-02T04:30:51.266Z,4.20
2023-08-02T04:33:18.024Z,6.45
2023-08-02T04:35:44.580Z,5.80
2023-08-02T04:38:11.122Z,5.70
2023-08-02T04:40:40.800Z,4.68
2023-08-02T04:43:07.331Z,4.82
2023-08-02T04:45:33.887Z,5.05
2023-08-02T04:48:00.469Z,4.75
2023-08-02T04:50:27.014Z,5.85
2023-08-02T04:52:53.461Z,5.20
2023-08-02T04:55:19.948Z,6.60
2023-08-02T04:57:46.443Z,5.88
2023-08-02T05:00:13.246Z,5.97
2023-08-02T05:05:06.726Z,5.65
2023-08-02T05:07:38.345Z,6.82
2023-08-02T05:10:07.317Z,6.57
2023-08-02T05:12:39.514Z,5.93
2023-08-02T05:15:07.232Z,8.43
2023-08-02T05:17:33.796Z,5.90
2023-08-02T05:20:00.743Z,6.85
2023-08-02T05:24:53.950Z,6.32
2023-08-02T05:29:47.261Z,6.05
2023-08-02T05:32:13.954Z,5.32
2023-08-02T05:34:40.548Z,6.25
2023-08-02T05:37:07.036Z,7.78
2023-08-02T05:39:33.487Z,5.78
2023-08-02T05:41:59.994Z,6.78
2023-08-02T05:44:26.502Z,5.53
2023-08-02T05:46:52.953Z,6.65
2023-08-02T05:49:19.433Z,5.07
2023-08-02T05:51:45.925Z,5.55
2023-08-02T05:54:12.418Z,4.65
2023-08-02T05:56:38.925Z,4.50
2023-08-02T05:59:05.369Z,4.80
2023-08-02T06:01:31.985Z,4.50
2023-08-02T06:03:58.545Z,5.25
2023-08-02T06:06:25.182Z,4.88
2023-08-02T06:08:51.726Z,4.78
2023-08-02T06:11:18.188Z,5.32
2023-08-02T06:13:44.672Z,5.20
2023-08-02T06:16:11.249Z,4.78
2023-08-02T06:21:06.467Z,5.80
2023-08-02T06:23:32.924Z,6.15
2023-08-02T06:25:59.376Z,6.00
2023-08-02T06:28:25.848Z,4.68
2023-08-02T06:30:52.324Z,6.93
2023-08-02T06:33:18.820Z,4.60
2023-08-02T06:35:47.248Z,4.57
2023-08-02T06:38:13.712Z,6.05
2023-08-02T06:40:40.152Z,7.68
2023-08-02T06:43:06.666Z,4.57
2023-08-02T06:47:59.622Z,6.20
2023-08-02T06:50:26.258Z,5.63
2023-08-02T06:52:52.930Z,5.70
2023-08-02T06:55:19.436Z,5.50
2023-08-02T07:00:12.923Z,5.47
2023-08-02T07:02:39.583Z,5.50
2023-08-02T07:05:07.867Z,4.80
2023-08-02T07:07:36.290Z,4.93
2023-08-02T07:12:29.374Z,5.22
2023-08-02T07:14:55.872Z,6.25
2023-08-02T07:17:22.545Z,5.88
2023-08-02T07:19:49.735Z,6.03
2023-08-02T07:22:18.985Z,4.63
2023-08-02T07:24:45.778Z,4.57
2023-08-02T07:27:12.457Z,4.88
2023-08-02T07:29:38.995Z,4.20
2023-08-02T07:32:06.025Z,6.20
2023-08-02T07:34:34.348Z,4.60
2023-08-02T07:37:00.829Z,5.25
2023-08-02T07:39:27.400Z,4.20
2023-08-02T07:41:53.877Z,5.55
2023-08-02T07:44:20.493Z,4.43
2023-08-02T07:46:47.064Z,3.97
2023-08-02T07:49:13.579Z,4.28
2023-08-02T07:51:40.473Z,6.65
2023-08-02T07:54:07.240Z,6.35
2023-08-02T07:56:33.746Z,5.53
2023-08-02T07:59:01.868Z,4.53
2023-08-02T08:01:30.716Z,4.68
2023-08-02T08:03:57.357Z,3.83
2023-08-02T08:06:25.278Z,3.97
2023-08-02T08:08:52.128Z,3.92
2023-08-02T08:11:18.845Z,3.67
2023-08-02T08:13:45.393Z,5.47
2023-08-02T08:16:11.959Z,3.53
2023-08-02T08:18:38.474Z,3.20
2023-08-02T08:21:05.478Z,4.35
2023-08-02T08:23:32.579Z,3.42
2023-08-02T08:25:59.084Z,3.80
2023-08-02T08:28:25.727Z,4.03
2023-08-02T08:31:02.003Z,3.72
2023-08-02T08:33:29.531Z,4.05
2023-08-02T08:35:56.220Z,4.03
2023-08-02T08:38:22.824Z,5.72
2023-08-02T08:40:53.452Z,4.53
2023-08-02T08:43:21.109Z,3.92
2023-08-02T08:45:48.398Z,4.28
2023-08-02T08:48:15.114Z,6.88
2023-08-02T08:50:47.438Z,4.25
2023-08-02T08:53:20.000Z,3.70
2023-08-02T08:55:50.540Z,3.92
2023-08-02T08:58:17.182Z,4.40
2023-08-02T09:00:45.091Z,3.88
2023-08-02T09:03:14.194Z,5.43
2023-08-02T09:05:44.292Z,3.53
2023-08-02T09:08:10.784Z,5.60
2023-08-02T09:10:37.640Z,3.53
2023-08-02T09:13:04.158Z,3.25
2023-08-02T09:15:30.690Z,2.97
2023-08-02T09:17:57.398Z,2.83
2023-08-02T09:20:26.623Z,4.22
2023-08-02T09:22:53.978Z,4.50
2023-08-02T09:25:28.505Z,4.68
2023-08-02T09:27:56.906Z,3.40
2023-08-02T09:30:30.737Z,3.95
2023-08-02T09:33:01.471Z,4.72
2023-08-02T09:35:28.558Z,3.42
2023-08-02T09:37:55.153Z,2.90
2023-08-02T09:40:36.100Z,3.33
2023-08-02T09:43:05.103Z,3.63
2023-08-02T09:45:35.303Z,2.92
2023-08-02T09:48:02.667Z,3.40
2023-08-02T09:50:29.930Z,3.78
2023-08-02T09:52:56.589Z,4.78
2023-08-02T09:55:23.155Z,3.50
2023-08-02T09:57:50.685Z,3.45
2023-08-02T10:00:18.344Z,5.60
2023-08-02T10:02:47.544Z,4.30
2023-08-02T10:05:15.099Z,5.97
2023-08-02T10:07:48.968Z,3.90
2023-08-02T10:10:22.672Z,3.80
2023-08-02T10:12:53.797Z,4.38
2023-08-02T10:15:21.105Z,3.28
2023-08-02T10:17:48.750Z,4.63
2023-08-02T10:20:16.374Z,3.70
2023-08-02T10:22:43.251Z,3.58
2023-08-02T10:25:09.936Z,3.88
2023-08-02T10:27:38.735Z,3.38
2023-08-02T10:30:05.721Z,3.42
2023-08-02T10:32:32.310Z,3.28
2023-08-02T10:35:00.290Z,4.60
2023-08-02T10:37:54.772Z,3.00
2023-08-02T10:40:26.754Z,2.67
2023-08-02T10:43:04.656Z,3.20
2023-08-02T10:45:31.237Z,3.78
2023-08-02T10:48:23.389Z,3.60
2023-08-02T10:50:50.281Z,3.60
2023-08-02T10:53:16.973Z,3.00
2023-08-02T10:56:04.116Z,3.38
2023-08-02T10:58:47.160Z,2.70
2023-08-02T11:01:14.222Z,3.10
2023-08-02T11:03:41.125Z,3.35
2023-08-02T11:06:07.800Z,2.90
2023-08-02T11:08:47.244Z,3.22
2023-08-02T11:11:13.779Z,2.83
2023-08-02T11:13:41.432Z,2.78
2023-08-02T11:16:08.813Z,2.83
2023-08-02T11:18:42.725Z,4.00
2023-08-02T11:21:13.170Z,4.03
2023-08-02T11:24:01.043Z,2.60
2023-08-02T11:26:27.113Z,3.95
2023-08-02T11:28:53.789Z,4.03
2023-08-02T11:31:28.679Z,3.05
2023-08-02T11:33:55.283Z,4.30
2023-08-02T11:36:21.856Z,3.45
2023-08-02T11:38:48.539Z,2.92
2023-08-02T11:41:24.623Z,2.72
2023-08-02T11:43:51.557Z,3.30
2023-08-02T11:46:22.975Z,2.92
2023-08-02T11:48:50.006Z,3.17
2023-08-02T11:51:19.828Z,2.83
2023-08-02T11:53:56.667Z,3.45
2023-08-02T11:56:24.599Z,4.65
2023-08-02T11:58:51.820Z,3.65
2023-08-02T12:01:19.923Z,3.08
2023-08-02T12:04:02.503Z,3.35
2023-08-02T12:06:44.772Z,3.70
2023-08-02T12:09:11.456Z,3.17
2023-08-02T12:11:38.007Z,3.65
2023-08-02T12:14:04.545Z,3.13
2023-08-02T12:16:41.322Z,3.08
2023-08-02T12:19:09.198Z,3.60
2023-08-02T12:21:36.349Z,3.53
2023-08-02T12:24:17.314Z,3.03
2023-08-02T12:26:44.759Z,3.20
2023-08-02T12:29:22.390Z,3.85
2023-08-02T12:31:49.612Z,2.85
2023-08-02T12:34:16.498Z,3.08
2023-08-02T12:36:43.189Z,3.35
2023-08-02T12:39:09.893Z,3.75
2023-08-02T12:41:36.408Z,3.78
2023-08-02T12:44:05.717Z,4.22
2023-08-02T12:46:32.896Z,3.22
2023-08-02T12:48:59.450Z,3.58
2023-08-02T12:51:25.958Z,2.50
2023-08-02T12:53:52.546Z,2.92
2023-08-02T12:56:19.044Z,2.75
2023-08-02T12:58:45.484Z,2.83
2023-08-02T13:01:12.003Z,3.45
2023-08-02T13:03:38.687Z,3.92
2023-08-02T13:06:05.463Z,2.85
2023-08-02T13:08:32.035Z,2.70
2023-08-02T13:10:58.625Z,3.03
2023-08-02T13:13:25.212Z,3.30
2023-08-02T13:15:51.749Z,4.18
2023-08-02T13:18:18.322Z,2.85
2023-08-02T13:20:45.317Z,2.75
2023-08-02T13:23:12.078Z,2.75
2023-08-02T13:25:39.227Z,3.28
2023-08-02T13:28:07.171Z,3.90
2023-08-02T13:30:35.184Z,2.33
2023-08-02T13:33:02.381Z,2.83
2023-08-02T13:35:29.050Z,3.75
2023-08-02T13:37:55.554Z,3.67
2023-08-02T13:40:22.049Z,4.35
2023-08-02T13:42:48.587Z,3.15
2023-08-02T13:45:15.090Z,3.22
2023-08-02T13:47:41.606Z,3.90
2023-08-02T13:50:08.489Z,2.70
2023-08-02T13:52:35.168Z,4.25
2023-08-02T13:55:02.307Z,3.25
2023-08-02T13:57:28.899Z,3.25
2023-08-02T13:59:55.478Z,3.42
2023-08-02T14:02:22.450Z,4.25
2023-08-02T14:04:49.768Z,4.38
2023-08-02T14:07:16.476Z,3.20
2023-08-02T14:09:43.149Z,2.97
2023-08-02T14:12:16.952Z,3.85
2023-08-02T14:14:44.397Z,3.25
2023-08-02T14:17:10.999Z,3.97
2023-08-02T14:19:37.539Z,3.47
2023-08-02T14:22:05.030Z,4.20
2023-08-02T14:24:31.665Z,2.65
2023-08-02T14:26:58.172Z,4.18
2023-08-02T14:29:24.816Z,2.83
2023-08-02T14:31:51.305Z,3.25
2023-08-02T14:34:23.069Z,3.50
2023-08-02T14:36:49.749Z,3.00
2023-08-02T14:39:16.424Z,3.50
2023-08-02T14:41:43.088Z,4.35
2023-08-02T14:44:09.596Z,6.00
2023-08-02T14:46:36.431Z,3.42
2023-08-02T14:49:02.946Z,3.75
2023-08-02T14:51:29.460Z,3.28
2023-08-02T14:54:07.539Z,4.40
2023-08-02T14:56:39.557Z,3.28
2023-08-02T14:59:06.057Z,4.13
2023-08-02T15:01:32.557Z,2.58
2023-08-02T15:03:59.033Z,3.00
2023-08-02T15:06:26.460Z,2.33
2023-08-02T15:08:53.979Z,3.38
2023-08-02T15:11:20.634Z,3.05
2023-08-02T15:13:47.080Z,3.17
2023-08-02T15:16:13.845Z,2.35
2023-08-02T15:18:40.591Z,2.67
2023-08-02T15:21:07.235Z,3.08
2023-08-02T15:23:33.755Z,3.15
2023-08-02T15:26:00.249Z,2.70
2023-08-02T15:28:26.720Z,3.08
2023-08-02T15:30:53.229Z,3.55
2023-08-02T15:33:19.721Z,4.43
2023-08-02T15:35:46.272Z,2.70
2023-08-02T15:38:14.060Z,2.78
2023-08-02T15:40:40.639Z,3.90
2023-08-02T15:43:07.351Z,3.47
2023-08-02T15:45:34.748Z,3.80
2023-08-02T15:48:01.409Z,3.63
2023-08-02T15:50:28.025Z,3.50
2023-08-02T15:52:54.582Z,2.88
2023-08-02T15:55:21.943Z,2.72
2023-08-02T15:57:50.769Z,2.65
2023-08-02T16:00:18.783Z,2.78
2023-08-02T16:02:46.009Z,3.40
2023-08-02T16:05:12.817Z,2.78
2023-08-02T16:07:39.356Z,2.47
2023-08-02T16:10:06.691Z,2.42
2023-08-02T16:12:33.265Z,3.58
2023-08-02T16:15:00.350Z,4.97
2023-08-02T16:17:26.992Z,3.63
2023-08-02T16:19:53.611Z,4.20
2023-08-02T16:22:20.273Z,3.78
2023-08-02T16:24:46.840Z,3.45
2023-08-02T16:27:14.316Z,3.88
2023-08-02T16:29:40.907Z,3.03
2023-08-02T16:32:07.540Z,3.70
2023-08-02T16:34:34.138Z,4.90
2023-08-02T16:37:00.648Z,4.22
2023-08-02T16:39:27.104Z,4.57
2023-08-02T16:41:53.568Z,2.72
2023-08-02T16:46:46.423Z,4.55
2023-08-02T16:49:12.976Z,4.95
2023-08-02T16:51:39.491Z,3.92
2023-08-02T16:54:06.127Z,4.10
2023-08-02T16:56:32.696Z,4.82
2023-08-02T16:58:59.170Z,3.45
2023-08-02T17:01:26.295Z,4.45
2023-08-02T17:03:53.213Z,3.22
2023-08-02T17:06:19.956Z,3.47
2023-08-02T17:08:46.589Z,2.90
2023-08-02T17:11:13.087Z,5.28
2023-08-02T17:13:39.626Z,3.15
2023-08-02T17:16:06.500Z,3.20
2023-08-02T17:18:33.148Z,2.95
2023-08-02T17:20:59.709Z,2.70
2023-08-02T17:23:26.268Z,5.05
2023-08-02T17:25:52.742Z,4.30
2023-08-02T17:30:46.661Z,3.15
2023-08-02T17:33:13.463Z,6.88
2023-08-02T17:35:40.214Z,4.75
2023-08-02T17:38:06.723Z,4.43
2023-08-02T17:40:33.553Z,4.70
2023-08-02T17:43:00.035Z,4.93
2023-08-02T17:45:27.860Z,5.72
2023-08-02T17:47:55.266Z,4.28
2023-08-02T17:50:21.844Z,6.45
2023-08-02T17:52:48.396Z,4.15
2023-08-02T17:55:14.924Z,3.72
2023-08-02T17:57:41.496Z,3.60
2023-08-02T18:00:09.128Z,4.25
2023-08-02T18:02:36.207Z,3.15
2023-08-02T18:05:02.807Z,4.03
2023-08-02T18:07:29.280Z,4.07
2023-08-02T18:12:22.228Z,3.63
2023-08-02T18:17:15.462Z,3.50
2023-08-02T18:19:42.029Z,4.68
2023-08-02T18:22:08.706Z,5.38
2023-08-02T18:24:39.197Z,5.28
2023-08-02T18:27:06.237Z,5.32
2023-08-02T18:29:32.795Z,3.20
2023-08-02T18:31:59.361Z,4.75
2023-08-02T18:34:25.880Z,3.72
2023-08-02T18:39:18.757Z,3.67
2023-08-02T18:44:12.219Z,6.45
2023-08-02T18:46:38.949Z,3.80
2023-08-02T18:49:05.544Z,5.45
2023-08-02T18:51:32.110Z,4.38
2023-08-02T18:53:58.644Z,4.40
2023-08-02T18:56:25.528Z,6.25
2023-08-02T18:58:53.088Z,4.10
2023-08-02T19:01:19.976Z,4.65
2023-08-02T19:03:46.884Z,4.57
2023-08-02T19:06:15.128Z,5.60
2023-08-02T19:08:45.375Z,4.20
2023-08-02T19:11:26.093Z,5.82
2023-08-02T19:13:53.228Z,4.90
2023-08-02T19:16:20.402Z,4.53
2023-08-02T19:18:47.073Z,5.20
2023-08-02T19:23:45.800Z,5.15
2023-08-02T19:26:22.515Z,5.82
2023-08-02T19:28:51.470Z,4.35
2023-08-02T19:31:21.106Z,5.95
2023-08-02T19:33:47.829Z,5.22
2023-08-02T19:36:21.862Z,6.20
2023-08-02T19:38:49.706Z,4.38
2023-08-02T19:41:30.406Z,3.47
2023-08-02T19:43:59.317Z,5.00
2023-08-02T19:46:26.894Z,4.38
2023-08-02T19:48:53.458Z,5.35
2023-08-02T19:51:19.933Z,4.07
2023-08-02T19:53:46.464Z,4.55
2023-08-02T19:58:57.394Z,5.88
2023-08-02T20:01:30.961Z,4.57
2023-08-02T20:03:57.971Z,7.18
2023-08-02T20:06:26.837Z,5.68
2023-08-02T20:08:53.514Z,5.35
2023-08-02T20:11:22.385Z,5.63
2023-08-02T20:13:52.023Z,4.57
2023-08-02T20:16:26.831Z,5.07
2023-08-02T20:18:55.473Z,3.63
2023-08-02T20:21:24.185Z,4.85
2023-08-02T20:24:01.019Z,5.57
2023-08-02T20:26:28.438Z,6.45
2023-08-02T20:28:56.607Z,5.00
2023-08-02T20:31:24.520Z,4.15
2023-08-02T20:33:55.767Z,4.60
2023-08-02T20:36:23.781Z,4.07
2023-08-02T20:38:52.382Z,4.25
2023-08-02T20:41:23.731Z,4.13
2023-08-02T20:43:52.952Z,5.18
2023-08-02T20:46:21.195Z,5.55
2023-08-02T20:48:48.540Z,5.22
2023-08-02T20:51:16.186Z,4.72
2023-08-02T20:53:43.357Z,4.85
2023-08-02T20:56:10.993Z,4.68
2023-08-02T20:58:38.500Z,6.70
2023-08-02T21:01:06.406Z,5.90
2023-08-02T21:03:35.704Z,4.55
2023-08-02T21:06:03.548Z,4.30
2023-08-02T21:08:30.068Z,5.53
2023-08-02T21:10:56.769Z,5.32
2023-08-02T21:13:25.967Z,4.32
2023-08-02T21:15:53.638Z,5.35
2023-08-02T21:18:23.822Z,7.28
2023-08-02T21:20:50.445Z,5.93
2023-08-02T21:25:48.107Z,5.97
2023-08-02T21:28:17.490Z,5.03
2023-08-02T21:30:46.647Z,5.95
2023-08-02T21:33:14.836Z,5.30
2023-08-02T21:35:45.900Z,5.93
2023-08-02T21:38:23.987Z,4.35
2023-08-02T21:40:52.351Z,4.35
2023-08-02T21:43:26.337Z,4.55
2023-08-02T21:46:17.646Z,5.13
2023-08-02T21:48:46.240Z,5.53
2023-08-02T21:51:13.757Z,4.45
2023-08-02T21:53:44.425Z,6.10
2023-08-02T21:56:12.022Z,4.65
2023-08-02T21:58:40.652Z,5.45
2023-08-02T22:01:11.572Z,5.13
2023-08-02T22:03:40.067Z,4.40
2023-08-02T22:06:06.666Z,4.75
2023-08-02T22:11:12.320Z,4.78
2023-08-02T22:13:39.191Z,5.68
2023-08-02T22:16:09.474Z,6.18
2023-08-02T22:18:36.318Z,4.75
2023-08-02T22:21:03.218Z,4.65
2023-08-02T22:23:30.597Z,3.53
2023-08-02T22:25:57.106Z,5.65
2023-08-02T22:28:23.982Z,4.63
2023-08-02T22:30:50.652Z,4.88
2023-08-02T22:33:17.192Z,5.20
2023-08-02T22:35:43.693Z,4.70
2023-08-02T22:38:10.776Z,5.75
2023-08-02T22:40:38.310Z,5.65
2023-08-02T22:43:04.964Z,5.00
2023-08-02T22:48:22.961Z,5.53
2023-08-02T22:50:55.210Z,5.35
2023-08-02T22:53:23.329Z,3.88
2023-08-02T22:55:49.932Z,3.80
2023-08-02T23:00:42.918Z,6.90
2023-08-02T23:03:37.453Z,4.05
2023-08-02T23:06:05.474Z,3.60
2023-08-02T23:08:36.703Z,3.97
2023-08-02T23:11:05.007Z,4.15
2023-08-02T23:13:31.520Z,3.45
2023-08-02T23:15:58.127Z,5.30
2023-08-02T23:18:24.764Z,3.58
2023-08-02T23:23:23.754Z,4.93
2023-08-02T23:25:57.843Z,4.50
2023-08-02T23:28:24.401Z,4.25
2023-08-02T23:30:51.051Z,2.88
2023-08-02T23:35:44.221Z,3.13
2023-08-02T23:38:12.145Z,4.00
2023-08-02T23:40:38.666Z,4.30
2023-08-02T23:43:05.321Z,3.72
2023-08-02T23:47:58.903Z,3.67
2023-08-02T23:50:25.472Z,3.25
2023-08-02T23:52:52.044Z,4.82
2023-08-02T23:57:45.011Z,4.07
